createdAt,value
2022-07-25T00:02:14.505Z,99985.06
2022-07-25T00:07:17.121Z,99986.81
2022-07-25T00:12:19.207Z,99982.19
2022-07-25T00:17:21.046Z,99972.50
2022-07-25T00:22:22.858Z,99965.03
2022-07-25T00:27:24.817Z,99964.50
2022-07-25T00:32:26.709Z,99963.00
2022-07-25T00:37:28.650Z,99962.81
2022-07-25T00:42:30.593Z,99963.88
2022-07-25T00:47:32.370Z,99955.97
2022-07-25T00:52:34.727Z,99956.31
2022-07-25T00:57:36.390Z,99950.41
2022-07-25T01:02:38.193Z,99941.47
2022-07-25T01:07:40.324Z,99939.03
2022-07-25T01:12:48.433Z,99931.22
2022-07-25T01:17:50.699Z,99940.50
2022-07-25T01:22:53.714Z,99930.59
2022-07-25T01:27:56.221Z,99927.19
2022-07-25T01:32:59.792Z,99918.88
2022-07-25T01:38:08.991Z,99907.25
2022-07-25T01:43:12.243Z,99902.56
2022-07-25T01:48:14.059Z,99900.13
2022-07-25T01:53:15.710Z,99900.84
2022-07-25T01:58:17.421Z,99898.72
2022-07-25T02:03:30.326Z,99894.03
2022-07-25T02:08:32.585Z,99890.66
2022-07-25T02:13:34.628Z,99895.00
2022-07-25T02:18:36.589Z,99884.88
2022-07-25T02:23:38.335Z,99886.03
2022-07-25T02:28:40.654Z,99881.03
2022-07-25T02:33:42.604Z,99874.34
2022-07-25T02:38:44.242Z,99879.00
2022-07-25T02:43:45.847Z,99874.66
2022-07-25T02:48:47.567Z,99871.75
2022-07-25T02:53:58.189Z,99872.06
2022-07-25T02:59:00.555Z,99866.34
2022-07-25T03:04:02.347Z,99862.25
2022-07-25T03:09:04.635Z,99868.34
2022-07-25T03:14:08.647Z,99866.88
2022-07-25T03:19:12.755Z,99853.94
2022-07-25T03:24:14.856Z,99858.22
2022-07-25T03:29:16.535Z,99859.50
2022-07-25T03:34:18.209Z,99854.91
2022-07-25T03:39:20.905Z,99851.25
2022-07-25T03:44:24.760Z,99843.91
2022-07-25T03:49:26.370Z,99840.19
2022-07-25T03:54:28.065Z,99842.91
2022-07-25T03:59:29.732Z,99843.56
2022-07-25T04:04:31.293Z,99835.16
2022-07-25T04:09:33.541Z,99827.56
2022-07-25T04:14:35.653Z,99829.72
2022-07-25T04:19:37.314Z,99821.88
2022-07-25T04:24:39.073Z,99811.72
2022-07-25T04:29:40.669Z,99804.66
2022-07-25T04:34:43.721Z,99799.47
2022-07-25T04:39:45.347Z,99804.13
2022-07-25T04:44:46.979Z,99786.34
2022-07-25T04:49:48.596Z,99780.22
2022-07-25T04:54:50.188Z,99778.78
2022-07-25T04:59:51.903Z,99774.09
2022-07-25T05:04:53.749Z,99763.78
2022-07-25T05:09:55.443Z,99772.63
2022-07-25T05:14:57.069Z,99765.09
2022-07-25T05:19:58.929Z,99752.22
2022-07-25T05:25:02.399Z,99752.69
2022-07-25T05:30:05.908Z,99746.41
2022-07-25T05:35:09.030Z,99742.06
2022-07-25T05:40:10.766Z,99747.47
2022-07-25T05:45:12.745Z,99731.41
2022-07-25T05:50:14.372Z,99733.09
2022-07-25T05:55:16.139Z,99723.84
2022-07-25T06:00:17.853Z,99723.31
2022-07-25T06:05:19.440Z,99714.44
2022-07-25T06:10:21.527Z,99718.19
2022-07-25T06:15:26.842Z,99709.38
2022-07-25T06:20:29.218Z,99711.69
2022-07-25T06:25:31.363Z,99701.66
2022-07-25T06:30:33.459Z,99704.56
2022-07-25T06:35:35.496Z,99693.38
2022-07-25T06:40:37.149Z,99691.22
2022-07-25T06:45:38.851Z,99677.88
2022-07-25T06:50:40.662Z,99676.22
2022-07-25T06:55:42.352Z,99667.94
2022-07-25T07:00:44.439Z,99660.16
2022-07-25T07:05:46.232Z,99654.00
2022-07-25T07:10:47.895Z,99651.03
2022-07-25T07:15:50.541Z,99645.66
2022-07-25T07:20:52.843Z,99641.09
2022-07-25T07:25:54.568Z,99645.31
2022-07-25T07:31:15.783Z,99646.25
2022-07-25T07:36:18.204Z,99638.03
2022-07-25T07:41:20.332Z,99631.16
2022-07-25T07:46:22.084Z,99627.41
2022-07-25T07:51:23.888Z,99625.31
2022-07-25T07:56:25.710Z,99628.53
2022-07-25T08:01:27.496Z,99620.28
2022-07-25T08:06:29.215Z,99607.63
2022-07-25T08:11:31.077Z,99602.50
2022-07-25T08:16:33.724Z,99609.78
2022-07-25T08:21:35.448Z,99594.06
2022-07-25T08:26:37.449Z,99595.81
2022-07-25T08:31:39.157Z,99602.69
2022-07-25T08:36:40.883Z,99594.31
2022-07-25T08:41:43.139Z,99583.75
2022-07-25T08:46:45.616Z,99575.44
2022-07-25T08:51:47.742Z,99576.03
2022-07-25T08:56:53.183Z,99577.31
2022-07-25T09:01:54.927Z,99575.41
2022-07-25T09:06:56.662Z,99558.56
2022-07-25T09:11:58.671Z,99560.44
2022-07-25T09:17:06.450Z,99559.47
2022-07-25T09:22:24.130Z,99557.75
2022-07-25T09:27:25.747Z,99561.03
2022-07-25T09:32:27.441Z,99542.00
2022-07-25T09:37:29.079Z,99553.03
2022-07-25T09:42:32.808Z,99553.53
2022-07-25T09:47:37.980Z,99540.75
2022-07-25T09:52:40.807Z,99542.22
2022-07-25T09:57:45.053Z,99537.94
2022-07-25T10:02:46.684Z,99529.63
2022-07-25T10:07:51.038Z,99525.28
2022-07-25T10:12:59.801Z,99517.50
2022-07-25T10:18:06.810Z,99501.34
2022-07-25T10:23:28.720Z,99494.78
2022-07-25T10:28:42.884Z,99490.66
2022-07-25T10:33:48.451Z,99499.38
2022-07-25T10:38:57.486Z,99474.41
2022-07-25T10:44:02.118Z,99478.81
2022-07-25T10:49:06.639Z,99477.31
2022-07-25T10:54:13.862Z,99466.44
2022-07-25T10:59:35.603Z,99452.81
2022-07-25T11:04:37.394Z,99447.28
2022-07-25T11:09:40.466Z,99435.44
2022-07-25T11:14:43.196Z,99439.44
2022-07-25T11:19:54.810Z,99438.31
2022-07-25T11:24:57.734Z,99442.50
2022-07-25T11:30:14.573Z,99430.84
2022-07-25T11:35:24.386Z,99415.63
2022-07-25T11:40:26.074Z,99413.19
2022-07-25T11:45:30.852Z,99405.44
2022-07-25T11:50:34.113Z,99403.78
2022-07-25T11:55:40.271Z,99387.59
2022-07-25T12:00:48.329Z,99378.41
2022-07-25T12:05:53.451Z,99383.00
2022-07-25T12:10:55.738Z,99374.81
2022-07-25T12:15:59.628Z,99358.19
2022-07-25T12:21:01.302Z,99359.34
2022-07-25T12:26:02.944Z,99362.28
2022-07-25T12:31:04.888Z,99354.22
2022-07-25T12:36:08.713Z,99346.75
2022-07-25T12:41:13.498Z,99337.06
2022-07-25T12:46:19.302Z,99334.81
2022-07-25T12:51:20.928Z,99333.84
2022-07-25T12:56:22.686Z,99324.16
2022-07-25T13:01:25.055Z,99312.50
2022-07-25T13:06:26.828Z,99312.47
2022-07-25T13:11:28.420Z,99298.22
2022-07-25T13:16:30.210Z,99297.47
2022-07-25T13:21:31.931Z,99285.69
2022-07-25T13:26:34.438Z,99269.34
2022-07-25T13:31:36.154Z,99266.19
2022-07-25T13:36:38.430Z,99262.84
2022-07-25T13:41:40.099Z,99241.91
2022-07-25T13:46:46.036Z,99232.59
2022-07-25T13:51:47.981Z,99238.41
2022-07-25T13:56:49.802Z,99226.16
2022-07-25T14:01:51.528Z,99221.63
2022-07-25T14:06:53.744Z,99207.25
2022-07-25T14:11:55.488Z,99217.88
2022-07-25T14:16:58.039Z,99204.19
2022-07-25T14:21:59.706Z,99184.50
2022-07-25T14:27:01.563Z,99189.97
2022-07-25T14:32:04.290Z,99177.94
2022-07-25T14:37:07.416Z,99179.50
2022-07-25T14:42:11.291Z,99169.81
2022-07-25T14:47:12.981Z,99158.56
2022-07-25T14:52:15.736Z,99162.94
2022-07-25T14:57:17.434Z,99154.22
2022-07-25T15:02:19.527Z,99144.56
2022-07-25T15:07:21.354Z,99125.88
2022-07-25T15:12:22.974Z,99128.19
2022-07-25T15:17:24.588Z,99121.81
2022-07-25T15:22:26.193Z,99106.31
2022-07-25T15:27:28.042Z,99102.38
2022-07-25T15:32:29.686Z,99100.66
2022-07-25T15:37:31.346Z,99096.59
2022-07-25T15:42:34.268Z,99093.72
2022-07-25T15:47:35.972Z,99082.66
2022-07-25T15:52:37.616Z,99079.63
2022-07-25T15:57:39.402Z,99079.38
2022-07-25T16:02:40.997Z,99071.31
2022-07-25T16:07:42.836Z,99061.13
2022-07-25T16:12:44.846Z,99057.44
2022-07-25T16:17:46.641Z,99050.25
2022-07-25T16:22:49.102Z,99042.25
2022-07-25T16:27:52.046Z,99029.31
2022-07-25T16:32:54.263Z,99027.28
2022-07-25T16:37:55.942Z,99017.06
2022-07-25T16:42:59.262Z,99005.75
2022-07-25T16:48:00.857Z,99008.41
2022-07-25T16:53:02.598Z,98992.47
2022-07-25T16:58:04.493Z,98982.84
2022-07-25T17:03:06.161Z,98970.09
2022-07-25T17:08:07.786Z,98974.78
2022-07-25T17:13:09.513Z,98969.59
2022-07-25T17:18:11.205Z,98971.41
2022-07-25T17:23:12.938Z,98965.50
2022-07-25T17:28:14.883Z,98977.56
2022-07-25T17:33:17.074Z,98972.75
2022-07-25T17:38:23.762Z,98979.00
2022-07-25T17:43:28.884Z,98972.72
2022-07-25T17:48:30.569Z,98976.91
2022-07-25T17:53:33.050Z,98976.19
2022-07-25T17:58:34.790Z,98974.38
2022-07-25T18:03:36.385Z,98994.38
2022-07-25T18:08:38.087Z,99133.13
2022-07-25T18:13:39.754Z,99153.63
2022-07-25T18:18:41.396Z,99122.44
2022-07-25T18:23:43.073Z,99127.78
2022-07-25T18:28:44.828Z,99123.34
2022-07-25T18:33:47.035Z,99124.78
2022-07-25T18:38:49.080Z,99120.66
2022-07-25T18:43:53.017Z,99123.59
2022-07-25T18:48:54.802Z,99139.31
2022-07-25T18:53:56.624Z,99153.91
2022-07-25T18:58:58.437Z,99161.72
2022-07-25T19:04:01.990Z,99165.22
2022-07-25T19:09:04.004Z,99177.53
2022-07-25T19:14:06.338Z,99170.81
2022-07-25T19:19:10.018Z,99164.22
2022-07-25T19:24:13.093Z,99177.16
2022-07-25T19:29:16.879Z,99170.25
2022-07-25T19:34:19.199Z,99160.97
2022-07-25T19:39:21.616Z,99157.44
2022-07-25T19:44:23.378Z,99171.13
2022-07-25T19:49:25.068Z,99197.88
2022-07-25T19:54:26.723Z,99214.41
2022-07-25T19:59:28.683Z,99201.25
2022-07-25T20:04:30.453Z,99204.28
2022-07-25T20:09:34.852Z,99220.28
2022-07-25T20:14:36.624Z,99204.47
2022-07-25T20:19:38.388Z,99166.25
2022-07-25T20:24:40.687Z,99151.34
2022-07-25T20:29:42.760Z,99171.50
2022-07-25T20:34:45.334Z,99180.41
2022-07-25T20:39:47.090Z,99185.97
2022-07-25T20:44:50.005Z,99174.25
2022-07-25T20:49:51.664Z,99176.41
2022-07-25T20:54:53.389Z,99178.56
2022-07-25T20:59:55.392Z,99180.41
2022-07-25T21:04:57.103Z,99171.53
2022-07-25T21:09:58.787Z,99167.09
2022-07-25T21:15:01.372Z,99168.75
2022-07-25T21:20:05.964Z,99178.41
2022-07-25T21:25:08.634Z,99181.34
2022-07-25T21:30:11.248Z,99188.53
2022-07-25T21:35:12.938Z,99188.75
2022-07-25T21:40:14.878Z,99195.41
2022-07-25T21:45:17.107Z,99192.44
2022-07-25T21:50:39.780Z,99198.94
2022-07-25T21:55:45.659Z,99199.25
2022-07-25T22:00:47.641Z,99197.97
2022-07-25T22:05:49.441Z,99216.28
2022-07-25T22:10:51.272Z,99209.88
2022-07-25T22:15:53.779Z,99203.03
2022-07-25T22:20:55.660Z,99199.13
2022-07-25T22:25:57.260Z,99208.69
2022-07-25T22:30:59.064Z,99244.88
2022-07-25T22:36:01.492Z,99261.44
2022-07-25T22:41:03.365Z,99263.59
2022-07-25T22:46:05.085Z,99267.41
2022-07-25T22:51:06.740Z,99287.22
2022-07-25T22:56:08.710Z,99289.66
2022-07-25T23:01:11.066Z,99284.09
2022-07-25T23:06:12.967Z,99294.22
2022-07-25T23:11:14.924Z,99303.22
2022-07-25T23:16:16.929Z,99323.75
2022-07-25T23:21:18.596Z,99348.31
2022-07-25T23:26:20.243Z,99375.94
2022-07-25T23:31:22.566Z,99382.44
2022-07-25T23:36:24.289Z,99406.97
2022-07-25T23:41:27.606Z,99418.66
2022-07-25T23:46:30.962Z,99411.47
2022-07-25T23:51:33.188Z,99425.44
2022-07-25T23:56:34.855Z,99440.44
